Airport Name : Peshawar Intl

Other Name : Peshawar Intl

ICAO : OPPS

IATA : PEW

FAA :

Latitude : 33.993911

Longitude : 71.514581

Country : Pakistan

Local Date and Time : 20 Apr 2021 17:54

 

TAF (Terminal Aerodrome Forecast)

TAF OPPS 200938Z 2012/2118 09006KT 4000 HZ FEW040TCU SCT040 BKN100 BECMG 2017/2019 05004KT PROB40 TEMPO 2016/2024 31010G20KT 3000 VCTS FEW030CB FM210300 31006KT 4000 HZ FEW060 SCT080

 

METAR (METeorological Aerodrome Report)

OPPS 201230Z 31012KT 4000 HZ SCT040 SCT100 BKN190 27/12 Q1007

OPPS 201200Z 31012KT 4000 HZ SCT040 SCT100 BKN190 27/12 Q1007

OPPS 201130Z 05006KT 4000 HZ SCT040 BKN100 27/10 Q1006

OPPS 201100Z 05006KT 4000 HZ SCT040 BKN100 27/10 Q1006

OPPS 201000Z 05008KT 4000 HZ FEW030TCU SCT035 BKN110 27/10 Q1007

OPPS 200930Z 13006KT 4000 HZ FEW030TCU SCT035 BKN110 28/09 Q1008

OPPS 200900Z 13006KT 4000 HZ FEW030TCY SCT035 BKN110 28/09 Q1008

To Charter a Jet Click here.